createdAt,value
2018-06-30T00:00:08.053Z,16.30
2018-06-30T00:02:37.303Z,17.73
2018-06-30T00:05:05.792Z,18.20
2018-06-30T00:07:34.267Z,20.30
2018-06-30T00:10:02.729Z,18.10
2018-06-30T00:12:31.348Z,22.53
2018-06-30T00:14:59.792Z,23.70
2018-06-30T00:17:28.274Z,19.67
2018-06-30T00:19:56.733Z,18.63
2018-06-30T00:22:25.206Z,19.20
2018-06-30T00:24:53.764Z,18.77
2018-06-30T00:27:28.464Z,17.60
2018-06-30T00:29:58.080Z,17.80
2018-06-30T00:32:26.960Z,17.60
2018-06-30T00:34:55.168Z,18.43
2018-06-30T00:37:23.659Z,16.30
2018-06-30T00:39:52.188Z,22.03
2018-06-30T00:42:20.388Z,16.50
2018-06-30T00:44:48.904Z,17.03
2018-06-30T00:47:17.400Z,16.53
2018-06-30T00:49:45.904Z,16.23
2018-06-30T00:52:14.438Z,15.00
2018-06-30T00:54:42.955Z,16.67
2018-06-30T00:57:11.452Z,17.03
2018-06-30T00:59:39.993Z,24.20
2018-06-30T01:02:08.500Z,22.37
2018-06-30T01:04:37.064Z,14.50
2018-06-30T01:07:05.696Z,15.77
2018-06-30T01:09:34.237Z,14.83
2018-06-30T01:12:02.744Z,16.93
2018-06-30T01:14:31.256Z,15.73
2018-06-30T01:16:59.758Z,13.70
2018-06-30T01:19:28.367Z,16.50
2018-06-30T01:21:56.884Z,16.80
2018-06-30T01:24:25.400Z,17.37
2018-06-30T01:26:53.926Z,17.73
2018-06-30T01:29:22.440Z,14.70
2018-06-30T01:31:50.939Z,13.50
2018-06-30T01:34:19.456Z,16.00
2018-06-30T01:36:47.956Z,20.30
2018-06-30T01:39:16.489Z,16.50
2018-06-30T01:41:44.985Z,17.37
2018-06-30T01:44:13.500Z,14.80
2018-06-30T01:46:41.992Z,16.93
2018-06-30T01:49:10.512Z,15.30
2018-06-30T01:51:39.020Z,15.77
2018-06-30T01:54:07.544Z,18.23
2018-06-30T01:56:36.072Z,15.97
2018-06-30T01:59:04.650Z,15.27
2018-06-30T02:01:33.136Z,14.27
2018-06-30T02:04:01.652Z,17.70
2018-06-30T02:06:30.220Z,14.07
2018-06-30T02:08:58.755Z,14.57
2018-06-30T02:11:27.323Z,14.33
2018-06-30T02:13:55.840Z,16.23
2018-06-30T02:16:24.352Z,14.63
2018-06-30T02:18:52.867Z,19.63
2018-06-30T02:21:21.389Z,15.10
2018-06-30T02:23:49.901Z,13.00
2018-06-30T02:26:18.404Z,14.80
2018-06-30T02:28:46.988Z,13.10
2018-06-30T02:31:15.513Z,13.80
2018-06-30T02:33:44.017Z,20.23
2018-06-30T02:36:12.609Z,21.40
2018-06-30T02:38:41.120Z,14.70
2018-06-30T02:41:09.883Z,12.40
2018-06-30T02:43:38.403Z,14.73
2018-06-30T02:46:07.094Z,13.10
2018-06-30T02:48:35.540Z,16.80
2018-06-30T02:51:04.070Z,16.10
2018-06-30T02:53:32.649Z,20.23
2018-06-30T02:56:01.168Z,14.37
2018-06-30T02:58:29.677Z,15.30
2018-06-30T03:00:58.217Z,15.60
2018-06-30T03:03:26.808Z,19.70
2018-06-30T03:05:55.328Z,12.00
2018-06-30T03:08:23.824Z,15.00
2018-06-30T03:10:52.416Z,17.67
2018-06-30T03:13:20.908Z,13.97
2018-06-30T03:15:49.549Z,12.57
2018-06-30T03:18:18.213Z,13.60
2018-06-30T03:20:46.732Z,15.70
2018-06-30T03:23:15.235Z,14.17
2018-06-30T03:25:43.776Z,17.50
2018-06-30T03:28:12.277Z,12.83
2018-06-30T03:30:40.822Z,14.50
2018-06-30T03:33:09.321Z,12.77
2018-06-30T03:35:37.835Z,12.00
2018-06-30T03:38:06.443Z,12.53
2018-06-30T03:40:34.956Z,13.70
2018-06-30T03:43:03.464Z,12.53
2018-06-30T03:45:32.008Z,14.37
2018-06-30T03:48:00.504Z,15.90
2018-06-30T03:50:29.214Z,13.57
2018-06-30T03:52:57.931Z,11.87
2018-06-30T03:55:26.448Z,12.00
2018-06-30T03:57:55.103Z,12.43
2018-06-30T04:00:23.654Z,11.63
2018-06-30T04:02:52.159Z,12.90
2018-06-30T04:05:21.107Z,12.40
2018-06-30T04:07:49.688Z,12.83
2018-06-30T04:10:18.261Z,14.50
2018-06-30T04:12:46.755Z,16.80
2018-06-30T04:15:15.277Z,16.87
2018-06-30T04:17:43.756Z,18.87
2018-06-30T04:20:12.279Z,15.73
2018-06-30T04:22:40.785Z,15.70
2018-06-30T04:25:09.332Z,16.00
2018-06-30T04:27:37.858Z,15.30
2018-06-30T04:30:06.571Z,15.97
2018-06-30T04:32:35.104Z,17.50
2018-06-30T04:35:03.600Z,17.97
2018-06-30T04:37:31.815Z,13.10
2018-06-30T04:40:00.308Z,13.43
2018-06-30T04:42:28.896Z,17.23
2018-06-30T04:44:57.428Z,16.37
2018-06-30T04:47:26.036Z,15.80
2018-06-30T04:49:54.532Z,14.50
2018-06-30T04:52:23.045Z,12.70
2018-06-30T04:54:51.532Z,12.57
2018-06-30T04:57:20.096Z,11.77
2018-06-30T04:59:48.624Z,13.77
2018-06-30T05:02:17.157Z,13.93
2018-06-30T05:04:45.684Z,14.63
2018-06-30T05:07:14.229Z,13.00
2018-06-30T05:09:42.716Z,13.90
2018-06-30T05:12:11.253Z,13.13
2018-06-30T05:14:39.768Z,14.33
2018-06-30T05:17:08.345Z,12.00
2018-06-30T05:19:36.876Z,13.47
2018-06-30T05:22:05.100Z,10.67
2018-06-30T05:24:33.629Z,10.33
2018-06-30T05:27:02.132Z,16.47
2018-06-30T05:29:30.287Z,16.67
2018-06-30T05:31:58.861Z,17.10
2018-06-30T05:34:27.349Z,12.70
2018-06-30T05:36:57.894Z,15.03
2018-06-30T05:39:26.415Z,11.87
2018-06-30T05:41:54.957Z,9.17
2018-06-30T05:44:23.447Z,14.20
2018-06-30T05:46:51.665Z,10.50
2018-06-30T05:49:20.568Z,10.23
2018-06-30T05:51:49.118Z,12.20
2018-06-30T05:54:17.612Z,10.97
2018-06-30T05:56:46.135Z,17.00
2018-06-30T05:59:14.765Z,11.80
2018-06-30T06:01:43.582Z,12.73
2018-06-30T06:04:12.084Z,10.83
2018-06-30T06:06:40.591Z,9.13
2018-06-30T06:09:10.833Z,10.27
2018-06-30T06:11:39.432Z,10.17
2018-06-30T06:14:07.956Z,10.37
2018-06-30T06:16:36.869Z,11.67
2018-06-30T06:19:05.380Z,15.60
2018-06-30T06:21:33.909Z,10.37
2018-06-30T06:24:02.406Z,10.20
2018-06-30T06:26:30.939Z,12.40
2018-06-30T06:28:59.421Z,13.23
2018-06-30T06:31:27.968Z,13.50
2018-06-30T06:33:56.898Z,10.87
2018-06-30T06:36:25.517Z,12.47
2018-06-30T06:38:54.032Z,11.90
2018-06-30T06:41:22.451Z,9.80
2018-06-30T06:43:50.969Z,11.50
2018-06-30T06:46:19.477Z,11.93
2018-06-30T06:48:47.663Z,16.70
2018-06-30T06:51:16.173Z,20.67
2018-06-30T06:53:44.704Z,19.30
2018-06-30T06:56:13.224Z,15.30
2018-06-30T06:58:41.821Z,15.40
2018-06-30T07:01:10.325Z,22.27
2018-06-30T07:03:38.840Z,17.20
2018-06-30T07:06:10.626Z,16.00
2018-06-30T07:08:38.887Z,16.70
2018-06-30T07:11:07.403Z,18.53
2018-06-30T07:19:22.102Z,18.20
2018-06-30T07:21:52.108Z,20.50
2018-06-30T07:24:20.633Z,22.63
2018-06-30T07:26:49.107Z,16.47
2018-06-30T07:29:17.724Z,21.90
2018-06-30T07:31:46.245Z,17.57
2018-06-30T07:34:14.752Z,17.73
2018-06-30T07:36:43.244Z,18.47
2018-06-30T07:39:11.773Z,19.37
2018-06-30T07:41:41.284Z,16.37
2018-06-30T07:44:09.801Z,19.70
2018-06-30T07:46:38.357Z,14.90
2018-06-30T07:49:06.884Z,16.90
2018-06-30T07:51:35.392Z,17.73
2018-06-30T07:54:03.916Z,18.57
2018-06-30T07:56:32.405Z,18.60
2018-06-30T07:59:00.910Z,20.97
2018-06-30T08:01:29.372Z,19.70
2018-06-30T08:03:57.884Z,18.07
2018-06-30T08:06:26.409Z,20.03
2018-06-30T08:08:54.872Z,17.97
2018-06-30T08:11:23.356Z,19.73
2018-06-30T08:13:52.430Z,24.63
2018-06-30T08:16:20.878Z,45.47
2018-06-30T08:18:49.440Z,15.80
2018-06-30T08:21:17.909Z,17.97
2018-06-30T08:23:46.460Z,19.60
2018-06-30T08:26:15.223Z,22.37
2018-06-30T08:28:43.714Z,19.67
2018-06-30T08:31:12.200Z,20.73
2018-06-30T08:33:40.693Z,20.03
2018-06-30T08:36:09.363Z,25.00
2018-06-30T08:38:37.828Z,20.70
2018-06-30T08:41:06.301Z,28.33
2018-06-30T08:43:34.772Z,18.97
2018-06-30T08:46:03.249Z,20.33
2018-06-30T08:48:31.837Z,18.73
2018-06-30T08:51:00.280Z,18.73
2018-06-30T08:53:28.813Z,17.00
2018-06-30T08:55:57.265Z,19.10
2018-06-30T08:58:25.724Z,18.47
2018-06-30T09:00:54.209Z,19.33
2018-06-30T09:03:22.725Z,14.03
2018-06-30T09:05:51.202Z,16.17
2018-06-30T09:08:19.682Z,14.80
2018-06-30T09:10:49.283Z,14.53
2018-06-30T09:13:17.780Z,18.83
2018-06-30T09:15:46.240Z,14.57
2018-06-30T09:18:14.697Z,13.10
2018-06-30T09:20:43.165Z,14.00
2018-06-30T09:23:11.624Z,13.87
2018-06-30T09:25:40.089Z,13.60
2018-06-30T09:28:08.581Z,13.17
2018-06-30T09:30:37.052Z,13.70
2018-06-30T09:33:05.524Z,10.10
2018-06-30T09:35:34.017Z,10.97
2018-06-30T09:38:02.464Z,16.23
2018-06-30T09:40:30.920Z,10.30
2018-06-30T09:42:59.385Z,9.77
2018-06-30T09:45:27.852Z,13.13
2018-06-30T09:47:56.301Z,10.93
2018-06-30T09:50:24.808Z,13.40
2018-06-30T09:52:53.372Z,9.00
2018-06-30T09:55:21.848Z,9.93
2018-06-30T09:57:50.296Z,13.20
2018-06-30T10:00:24.167Z,18.07
2018-06-30T10:02:52.620Z,14.07
2018-06-30T10:05:21.369Z,11.37
2018-06-30T10:07:49.837Z,12.33
2018-06-30T10:10:18.513Z,10.43
2018-06-30T10:12:47.074Z,11.73
2018-06-30T10:15:15.548Z,11.40
2018-06-30T10:17:44.237Z,11.20
2018-06-30T10:20:12.717Z,10.07
2018-06-30T10:22:41.153Z,8.53
2018-06-30T10:25:09.617Z,7.07
2018-06-30T10:27:38.050Z,6.40
2018-06-30T10:30:06.673Z,6.97
2018-06-30T10:32:35.112Z,8.77
2018-06-30T10:35:03.656Z,6.90
2018-06-30T10:37:32.391Z,6.20
2018-06-30T10:40:00.848Z,6.60
2018-06-30T10:42:29.324Z,17.53
2018-06-30T10:44:57.792Z,8.47
2018-06-30T10:47:26.264Z,6.53
2018-06-30T10:49:54.716Z,7.93
2018-06-30T10:52:23.173Z,8.90
2018-06-30T10:54:51.359Z,8.30
2018-06-30T10:57:19.804Z,7.33
2018-06-30T10:59:48.357Z,6.63
2018-06-30T11:02:16.916Z,4.37
2018-06-30T11:04:45.415Z,4.70
2018-06-30T11:07:13.941Z,5.70
2018-06-30T11:09:42.458Z,11.83
2018-06-30T11:12:12.064Z,5.83
2018-06-30T11:14:40.572Z,6.07
2018-06-30T11:17:09.068Z,5.70
2018-06-30T11:19:37.587Z,6.03
2018-06-30T11:22:06.234Z,4.90
2018-06-30T11:24:34.726Z,9.40
2018-06-30T11:27:03.281Z,4.73
2018-06-30T11:29:31.859Z,8.20
2018-06-30T11:32:00.299Z,5.60
2018-06-30T11:34:28.804Z,5.97
2018-06-30T11:36:57.317Z,5.70
2018-06-30T11:39:25.812Z,4.90
2018-06-30T11:41:54.329Z,4.80
2018-06-30T11:44:22.819Z,7.10
2018-06-30T11:46:51.320Z,4.67
2018-06-30T11:49:19.804Z,7.00
2018-06-30T11:51:48.301Z,8.73
2018-06-30T11:54:16.772Z,7.10
2018-06-30T11:56:45.281Z,5.97
2018-06-30T11:59:13.787Z,6.20
2018-06-30T12:01:42.673Z,4.67
2018-06-30T12:04:11.153Z,4.70
2018-06-30T12:06:39.677Z,7.73
2018-06-30T12:09:09.633Z,5.60
2018-06-30T12:11:38.416Z,5.40
2018-06-30T12:14:07.598Z,9.10
2018-06-30T12:16:36.165Z,5.70
2018-06-30T12:19:04.969Z,6.47
2018-06-30T12:21:33.524Z,3.77
2018-06-30T12:24:02.008Z,10.57
2018-06-30T12:26:30.552Z,7.00
2018-06-30T12:28:59.064Z,3.90
2018-06-30T12:31:27.568Z,7.70
2018-06-30T12:33:56.053Z,7.80
2018-06-30T12:36:24.544Z,5.47
2018-06-30T12:38:53.053Z,9.93
2018-06-30T12:41:21.557Z,9.13
2018-06-30T12:43:50.049Z,6.50
2018-06-30T12:46:18.588Z,5.50
2018-06-30T12:48:47.181Z,4.50
2018-06-30T12:51:15.704Z,6.83
2018-06-30T12:53:44.220Z,10.00
2018-06-30T12:56:54.630Z,8.10
2018-06-30T12:59:47.383Z,9.17
2018-06-30T13:02:21.364Z,6.53
2018-06-30T13:04:49.804Z,4.20
2018-06-30T13:07:18.306Z,6.87
2018-06-30T13:09:50.491Z,4.07
2018-06-30T13:12:18.974Z,13.70
2018-06-30T13:14:47.422Z,9.40
2018-06-30T13:17:15.893Z,7.40
2018-06-30T13:19:44.368Z,12.00
2018-06-30T13:22:13.122Z,8.70
2018-06-30T13:24:41.592Z,7.93
2018-06-30T13:27:10.065Z,6.80
2018-06-30T13:29:38.515Z,15.73
2018-06-30T13:32:07.220Z,13.60
2018-06-30T13:34:35.660Z,8.20
2018-06-30T13:37:04.250Z,6.80
2018-06-30T13:39:32.786Z,11.53
2018-06-30T13:42:01.306Z,7.57
2018-06-30T13:47:37.799Z,10.83
2018-06-30T13:50:06.984Z,13.03
2018-06-30T13:59:19.910Z,12.80
2018-06-30T14:01:48.422Z,9.17
2018-06-30T14:04:16.924Z,7.53
2018-06-30T14:06:45.477Z,10.53
2018-06-30T14:09:14.044Z,11.10
2018-06-30T14:11:42.544Z,12.17
2018-06-30T14:16:34.109Z,11.20
2018-06-30T14:19:02.664Z,13.40
2018-06-30T14:21:31.136Z,9.53
2018-06-30T14:23:59.719Z,12.73
2018-06-30T14:26:28.540Z,11.73
2018-06-30T14:28:57.535Z,14.20
2018-06-30T14:31:26.016Z,9.07
2018-06-30T14:33:54.904Z,9.43
2018-06-30T14:36:23.613Z,10.00
2018-06-30T14:38:54.713Z,9.63
2018-06-30T14:41:28.254Z,12.10
2018-06-30T14:43:56.798Z,9.33
2018-06-30T14:46:25.485Z,9.50
2018-06-30T14:48:54.009Z,11.90
2018-06-30T14:51:22.551Z,9.00
2018-06-30T14:53:51.066Z,10.23
2018-06-30T14:56:20.557Z,10.33
2018-06-30T14:58:49.089Z,13.77
2018-06-30T15:01:17.565Z,9.53
2018-06-30T15:03:46.076Z,13.00
2018-06-30T15:06:14.516Z,9.30
2018-06-30T15:08:42.985Z,8.40
2018-06-30T15:11:16.276Z,11.90
2018-06-30T15:13:49.456Z,8.03
2018-06-30T15:16:22.552Z,7.97
2018-06-30T15:18:51.200Z,9.10
2018-06-30T15:21:20.097Z,11.67
2018-06-30T15:23:48.796Z,7.67
2018-06-30T15:26:23.336Z,10.93
2018-06-30T15:28:54.999Z,11.93
2018-06-30T15:31:28.648Z,8.60
2018-06-30T15:34:04.376Z,11.00
2018-06-30T15:36:38.056Z,10.90
2018-06-30T15:39:10.726Z,7.53
2018-06-30T15:41:43.516Z,8.27
2018-06-30T15:44:16.509Z,8.03
2018-06-30T15:46:45.203Z,9.37
2018-06-30T15:49:13.691Z,10.43
2018-06-30T15:51:42.165Z,10.17
2018-06-30T15:54:10.661Z,14.33
2018-06-30T15:56:39.846Z,7.70
2018-06-30T15:59:08.479Z,6.77
2018-06-30T16:01:37.309Z,9.30
2018-06-30T16:04:06.168Z,7.63
2018-06-30T16:06:34.692Z,10.63
2018-06-30T16:09:05.817Z,9.00
2018-06-30T16:11:34.620Z,7.23
2018-06-30T16:14:04.290Z,6.60
2018-06-30T16:16:32.984Z,8.20
2018-06-30T16:19:01.522Z,13.30
2018-06-30T16:21:30.012Z,6.30
2018-06-30T16:23:58.681Z,6.93
2018-06-30T16:26:27.325Z,12.53
2018-06-30T16:28:55.887Z,11.00
2018-06-30T16:31:25.984Z,10.30
2018-06-30T16:33:57.184Z,6.37
2018-06-30T16:36:25.725Z,6.47
2018-06-30T16:38:54.240Z,7.00
2018-06-30T16:41:22.655Z,7.70
2018-06-30T16:43:51.165Z,8.30
2018-06-30T16:46:19.632Z,5.87
2018-06-30T16:48:48.176Z,5.93
2018-06-30T16:51:16.672Z,11.23
2018-06-30T16:53:45.212Z,6.30
2018-06-30T16:56:13.756Z,6.00
2018-06-30T16:58:42.274Z,5.90
2018-06-30T17:01:10.720Z,7.90
2018-06-30T17:03:39.231Z,9.30
2018-06-30T17:06:07.709Z,9.33
2018-06-30T17:08:36.181Z,9.73
2018-06-30T17:11:04.665Z,25.47
2018-06-30T17:13:33.109Z,9.43
2018-06-30T17:16:01.577Z,5.77
2018-06-30T17:18:30.158Z,5.30
2018-06-30T17:20:58.625Z,6.90
2018-06-30T17:23:27.149Z,6.00
2018-06-30T17:25:56.025Z,3.80
2018-06-30T17:28:24.444Z,6.23
2018-06-30T17:30:52.900Z,6.30
2018-06-30T17:33:21.361Z,8.70
2018-06-30T17:35:49.813Z,7.90
2018-06-30T17:38:18.289Z,11.63
2018-06-30T17:40:46.825Z,5.40
2018-06-30T17:43:15.306Z,4.77
2018-06-30T17:45:43.778Z,6.13
2018-06-30T17:48:12.227Z,3.90
2018-06-30T17:50:40.725Z,4.23
2018-06-30T17:53:09.765Z,3.93
2018-06-30T17:55:38.423Z,5.30
2018-06-30T17:58:06.901Z,7.03
2018-06-30T18:00:35.395Z,3.20
2018-06-30T18:03:04.181Z,2.83
2018-06-30T18:05:32.662Z,5.40
2018-06-30T18:08:01.345Z,4.60
2018-06-30T18:10:29.983Z,3.87
2018-06-30T18:12:58.461Z,4.43
2018-06-30T18:15:26.979Z,3.43
2018-06-30T18:17:55.590Z,6.30
2018-06-30T18:20:24.077Z,2.43
2018-06-30T18:22:52.680Z,3.30
2018-06-30T18:25:21.240Z,2.27
2018-06-30T18:27:49.672Z,4.50
2018-06-30T18:30:18.268Z,3.10
2018-06-30T18:32:46.865Z,4.70
2018-06-30T18:35:15.040Z,3.13
2018-06-30T18:37:43.510Z,2.70
2018-06-30T18:40:12.008Z,5.40
2018-06-30T18:42:40.629Z,3.67
2018-06-30T18:45:09.137Z,4.93
2018-06-30T18:47:37.586Z,3.60
2018-06-30T18:50:06.377Z,4.13
2018-06-30T18:52:34.977Z,4.47
2018-06-30T18:55:03.521Z,2.93
2018-06-30T18:57:31.978Z,4.73
2018-06-30T19:00:00.501Z,1.70
2018-06-30T19:02:29.005Z,1.47
2018-06-30T19:04:57.538Z,3.53
2018-06-30T19:07:26.112Z,5.43
2018-06-30T19:09:54.637Z,2.50
2018-06-30T19:12:23.142Z,4.20
2018-06-30T19:14:51.669Z,3.83
2018-06-30T19:17:20.209Z,6.80
2018-06-30T19:19:48.850Z,2.27
2018-06-30T19:22:17.377Z,4.03
2018-06-30T19:24:45.852Z,6.83
2018-06-30T19:27:14.361Z,5.30
2018-06-30T19:29:42.896Z,2.70
2018-06-30T19:32:11.417Z,1.70
2018-06-30T19:34:39.921Z,1.33
2018-06-30T19:37:08.472Z,3.13
2018-06-30T19:39:36.947Z,1.27
2018-06-30T19:42:06.113Z,2.57
2018-06-30T19:44:34.592Z,6.50
2018-06-30T19:47:03.396Z,4.43
2018-06-30T19:49:31.885Z,3.87
2018-06-30T19:52:00.401Z,3.03
2018-06-30T19:54:28.868Z,2.90
2018-06-30T19:56:57.399Z,3.93
2018-06-30T19:59:26.113Z,2.77
2018-06-30T20:01:54.632Z,3.20
2018-06-30T20:04:23.132Z,3.53
2018-06-30T20:06:51.841Z,5.03
2018-06-30T20:09:20.048Z,6.67
2018-06-30T20:11:48.661Z,2.87
2018-06-30T20:14:17.140Z,2.47
2018-06-30T20:16:45.642Z,3.97
2018-06-30T20:19:13.801Z,3.43
2018-06-30T20:21:42.328Z,5.33
2018-06-30T20:24:10.816Z,5.73
2018-06-30T20:26:39.470Z,1.63
2018-06-30T20:29:08.000Z,2.17
2018-06-30T20:31:36.516Z,3.10
2018-06-30T20:34:05.133Z,3.93
2018-06-30T20:36:33.661Z,1.70
2018-06-30T20:39:02.261Z,3.50
2018-06-30T20:41:30.837Z,4.10
2018-06-30T20:43:59.324Z,2.50
2018-06-30T20:46:27.924Z,2.33
2018-06-30T20:48:56.415Z,1.70
2018-06-30T20:51:24.933Z,5.07
2018-06-30T20:53:53.416Z,1.73
2018-06-30T20:56:21.990Z,2.13
2018-06-30T20:58:50.480Z,1.87
2018-06-30T21:01:19.047Z,1.57
2018-06-30T21:03:47.531Z,2.90
2018-06-30T21:06:16.012Z,4.20
2018-06-30T21:08:44.529Z,1.93
2018-06-30T21:11:13.021Z,1.60
2018-06-30T21:13:41.578Z,2.07
2018-06-30T21:16:10.092Z,3.30
2018-06-30T21:18:38.584Z,1.40
2018-06-30T21:21:07.120Z,5.83
2018-06-30T21:23:35.651Z,1.80
2018-06-30T21:26:04.160Z,3.03
2018-06-30T21:28:32.400Z,2.40
2018-06-30T21:31:00.887Z,7.60
2018-06-30T21:33:29.402Z,6.33
2018-06-30T21:35:57.915Z,2.70
2018-06-30T21:38:26.412Z,5.50
2018-06-30T21:40:54.905Z,1.93
2018-06-30T21:43:23.396Z,3.17
2018-06-30T21:45:51.867Z,1.80
2018-06-30T21:48:20.393Z,4.70
2018-06-30T21:50:48.902Z,7.90
2018-06-30T21:53:17.416Z,2.80
2018-06-30T21:55:45.889Z,1.47
2018-06-30T21:58:14.393Z,2.17
2018-06-30T22:00:51.093Z,1.47
2018-06-30T22:03:24.939Z,3.53
2018-06-30T22:05:54.840Z,1.50
2018-06-30T22:08:23.549Z,1.83
2018-06-30T22:10:52.042Z,3.30
2018-06-30T22:13:21.219Z,1.93
2018-06-30T22:15:50.425Z,2.20
2018-06-30T22:18:19.332Z,4.03
2018-06-30T22:20:47.792Z,1.97
2018-06-30T22:23:16.264Z,3.13
2018-06-30T22:25:44.708Z,1.70
2018-06-30T22:28:13.202Z,4.50
2018-06-30T22:30:41.660Z,3.97
2018-06-30T22:33:10.132Z,3.13
2018-06-30T22:35:38.613Z,1.53
2018-06-30T22:38:07.092Z,1.40
2018-06-30T22:40:35.576Z,2.43
2018-06-30T22:43:04.138Z,3.87
2018-06-30T22:45:32.611Z,3.40
2018-06-30T22:48:01.080Z,6.83
2018-06-30T22:50:29.551Z,4.40
2018-06-30T22:52:57.775Z,1.93
2018-06-30T22:55:26.241Z,1.13
2018-06-30T22:57:54.732Z,4.63
2018-06-30T23:00:23.306Z,4.63
2018-06-30T23:02:51.841Z,8.80
2018-06-30T23:05:20.385Z,1.87
2018-06-30T23:07:48.928Z,6.13
2018-06-30T23:10:17.439Z,2.13
2018-06-30T23:12:46.045Z,3.10
2018-06-30T23:15:14.561Z,2.43
2018-06-30T23:17:43.028Z,4.03
2018-06-30T23:20:11.557Z,2.47
2018-06-30T23:23:12.021Z,1.40
2018-06-30T23:25:41.282Z,2.60
2018-06-30T23:28:09.892Z,1.53
2018-06-30T23:30:38.400Z,2.17
2018-06-30T23:33:06.975Z,3.20
2018-06-30T23:35:35.486Z,2.53
2018-06-30T23:38:04.464Z,6.27
2018-06-30T23:40:32.996Z,1.63
2018-06-30T23:43:01.489Z,1.47
2018-06-30T23:45:30.040Z,2.43
2018-06-30T23:47:58.537Z,2.73
2018-06-30T23:50:27.090Z,5.03
2018-06-30T23:52:55.584Z,1.70
2018-06-30T23:55:24.113Z,1.60
2018-06-30T23:57:52.636Z,1.80
